WZZ59 LBSF-EHEH
Flight info
| Callsign | WZZ59 |
|---|---|
| Flight time | 2h 23m |
| Altitude | 36000 |
| Route | OGOTA T228 UTEKA DCT DONIV DCT BABIT DCT SOGMO DCT SASAL DCT BARUG DCT DEXIT DCT RUDNO DCT MAPOX DCT BIGGE DCT DOMEG DCT ROTEK |
| Aircraft | A321/M-SDE1E2E3FGIJ1J4RWXY/LB1 |
Departure
| Time | 2026-05-05 16:58 |
|---|---|
| Airport | Sofia Airport (LBSF) |
Arrival
| Time | 2026-05-05 19:22 |
|---|---|
| Airport | Eindhoven Airport (EHEH) |
| Time | Latitude | Longitude | Altitude | Speed | Heading |
|---|---|---|---|---|---|
| 2026-05-05 16:28 | 42.69139 | 23.40035 | 1747 ft | 0 kts | 196° |
| 2026-05-05 16:53 | 42.69117 | 23.40026 | 1748 ft | 5 kts | 196° |
| 2026-05-05 16:53 | 42.69097 | 23.39987 | 1743 ft | 9 kts | 272° |
| 2026-05-05 16:53 | 42.69110 | 23.39879 | 1746 ft | 13 kts | 286° |
| 2026-05-05 16:53 | 42.69136 | 23.39757 | 1740 ft | 14 kts | 286° |
| 2026-05-05 16:54 | 42.69166 | 23.39621 | 1744 ft | 16 kts | 287° |
| 2026-05-05 16:54 | 42.69230 | 23.39543 | 1746 ft | 14 kts | 4° |
| 2026-05-05 16:54 | 42.69330 | 23.39554 | 1748 ft | 15 kts | 5° |
| 2026-05-05 16:54 | 42.69439 | 23.39566 | 1744 ft | 17 kts | 5° |
| 2026-05-05 16:55 | 42.69557 | 23.39580 | 1748 ft | 17 kts | 5° |
| 2026-05-05 16:55 | 42.69651 | 23.39590 | 1746 ft | 13 kts | 4° |
| 2026-05-05 16:55 | 42.69660 | 23.39591 | 1744 ft | 0 kts | 5° |
| 2026-05-05 16:56 | 42.69667 | 23.39592 | 1748 ft | 3 kts | 5° |
| 2026-05-05 16:56 | 42.69699 | 23.39595 | 1749 ft | 9 kts | 5° |
| 2026-05-05 16:57 | 42.69765 | 23.39613 | 1750 ft | 9 kts | 43° |
| 2026-05-05 16:57 | 42.69771 | 23.39660 | 1745 ft | 0 kts | 94° |
| 2026-05-05 16:57 | 42.69769 | 23.39701 | 1747 ft | 14 kts | 94° |
| 2026-05-05 16:57 | 42.69743 | 23.40147 | 1748 ft | 85 kts | 95° |
| 2026-05-05 16:58 | 42.69677 | 23.41250 | 1751 ft | 146 kts | 94° |
| 2026-05-05 16:58 | 42.69577 | 23.42795 | 2082 ft | 168 kts | 96° |
| 2026-05-05 16:58 | 42.69467 | 23.44357 | 2895 ft | 166 kts | 95° |
| 2026-05-05 16:58 | 42.69360 | 23.45941 | 3639 ft | 170 kts | 95° |
| 2026-05-05 16:59 | 42.69257 | 23.47545 | 4405 ft | 172 kts | 94° |
| 2026-05-05 16:59 | 42.69296 | 23.49221 | 4945 ft | 188 kts | 71° |
| 2026-05-05 16:59 | 42.70149 | 23.50655 | 5175 ft | 214 kts | 38° |
| 2026-05-05 16:59 | 42.71639 | 23.51307 | 5321 ft | 244 kts | 1° |
| 2026-05-05 17:00 | 42.73407 | 23.50871 | 5588 ft | 270 kts | 348° |
| 2026-05-05 17:00 | 42.75249 | 23.50199 | 6289 ft | 277 kts | 345° |
| 2026-05-05 17:00 | 42.77108 | 23.49469 | 7087 ft | 279 kts | 343° |
| 2026-05-05 17:00 | 42.78973 | 23.48729 | 7919 ft | 280 kts | 343° |
| 2026-05-05 17:01 | 42.80850 | 23.47991 | 8781 ft | 281 kts | 343° |
| 2026-05-05 17:01 | 42.82734 | 23.47263 | 9653 ft | 281 kts | 344° |
| 2026-05-05 17:01 | 42.84626 | 23.46545 | 10371 ft | 288 kts | 344° |
| 2026-05-05 17:01 | 42.86636 | 23.45789 | 10601 ft | 311 kts | 345° |
| 2026-05-05 17:02 | 42.88779 | 23.44986 | 10983 ft | 326 kts | 345° |
| 2026-05-05 17:02 | 42.90988 | 23.44160 | 11605 ft | 332 kts | 345° |
| 2026-05-05 17:02 | 42.93218 | 23.43318 | 12330 ft | 334 kts | 343° |
| 2026-05-05 17:02 | 42.95316 | 23.41928 | 13049 ft | 339 kts | 326° |
| 2026-05-05 17:03 | 42.97203 | 23.39973 | 13756 ft | 343 kts | 324° |
| 2026-05-05 17:03 | 42.99112 | 23.37970 | 14363 ft | 348 kts | 324° |
| 2026-05-05 17:03 | 43.01039 | 23.35942 | 15023 ft | 351 kts | 324° |
| 2026-05-05 17:03 | 43.02976 | 23.33898 | 15690 ft | 353 kts | 324° |
| 2026-05-05 17:04 | 43.04929 | 23.31837 | 16379 ft | 355 kts | 324° |
| 2026-05-05 17:04 | 43.06890 | 23.29767 | 17031 ft | 358 kts | 323° |
| 2026-05-05 17:04 | 43.08867 | 23.27679 | 17700 ft | 360 kts | 323° |
| 2026-05-05 17:04 | 43.10855 | 23.25581 | 18363 ft | 362 kts | 324° |
| 2026-05-05 17:05 | 43.12858 | 23.23469 | 18936 ft | 365 kts | 323° |
| 2026-05-05 17:05 | 43.14868 | 23.21342 | 19539 ft | 366 kts | 323° |
| 2026-05-05 17:05 | 43.16892 | 23.19200 | 20128 ft | 369 kts | 323° |
| 2026-05-05 17:05 | 43.18934 | 23.17038 | 20684 ft | 372 kts | 323° |
| 2026-05-05 17:06 | 43.20959 | 23.14889 | 21251 ft | 375 kts | 323° |
| 2026-05-05 17:06 | 43.23056 | 23.12665 | 21839 ft | 377 kts | 323° |
| 2026-05-05 17:06 | 43.25109 | 23.10487 | 22414 ft | 380 kts | 323° |
| 2026-05-05 17:06 | 43.27204 | 23.08262 | 22979 ft | 382 kts | 323° |
| 2026-05-05 17:07 | 43.29310 | 23.06022 | 23531 ft | 384 kts | 323° |
| 2026-05-05 17:07 | 43.31430 | 23.03765 | 23977 ft | 387 kts | 323° |
| 2026-05-05 17:07 | 43.33562 | 23.01493 | 24422 ft | 389 kts | 323° |
| 2026-05-05 17:07 | 43.35703 | 22.99207 | 24866 ft | 391 kts | 323° |
| 2026-05-05 17:08 | 43.37855 | 22.96907 | 25289 ft | 393 kts | 322° |
| 2026-05-05 17:08 | 43.40019 | 22.94592 | 25700 ft | 395 kts | 323° |
| 2026-05-05 17:08 | 43.42196 | 22.92264 | 26126 ft | 397 kts | 323° |
| 2026-05-05 17:08 | 43.44384 | 22.89925 | 26552 ft | 399 kts | 323° |
| 2026-05-05 17:09 | 43.46585 | 22.87569 | 26971 ft | 401 kts | 323° |
| 2026-05-05 17:09 | 43.48794 | 22.85203 | 27376 ft | 403 kts | 322° |
| 2026-05-05 17:09 | 43.51011 | 22.82824 | 27783 ft | 405 kts | 323° |
| 2026-05-05 17:09 | 43.53240 | 22.80429 | 28175 ft | 407 kts | 322° |
| 2026-05-05 17:10 | 43.55477 | 22.78019 | 28576 ft | 409 kts | 322° |
| 2026-05-05 17:10 | 43.57724 | 22.75595 | 28947 ft | 411 kts | 322° |
| 2026-05-05 17:10 | 43.59990 | 22.73150 | 29260 ft | 415 kts | 322° |
| 2026-05-05 17:10 | 43.62268 | 22.70691 | 29594 ft | 417 kts | 322° |
| 2026-05-05 17:11 | 43.64563 | 22.68215 | 29945 ft | 419 kts | 322° |
| 2026-05-05 17:11 | 43.66862 | 22.65728 | 30276 ft | 421 kts | 322° |
| 2026-05-05 17:11 | 43.69173 | 22.63226 | 30610 ft | 423 kts | 322° |
| 2026-05-05 17:11 | 43.71492 | 22.60714 | 30926 ft | 425 kts | 322° |
| 2026-05-05 17:12 | 43.73822 | 22.58187 | 31228 ft | 427 kts | 322° |
| 2026-05-05 17:12 | 43.76162 | 22.55644 | 31535 ft | 429 kts | 322° |
| 2026-05-05 17:12 | 43.78503 | 22.53098 | 31920 ft | 428 kts | 322° |
| 2026-05-05 17:12 | 43.80841 | 22.50555 | 32334 ft | 427 kts | 322° |
| 2026-05-05 17:13 | 43.83172 | 22.48015 | 32763 ft | 426 kts | 322° |
| 2026-05-05 17:13 | 43.85497 | 22.45482 | 33186 ft | 424 kts | 321° |
| 2026-05-05 17:13 | 43.87812 | 22.42958 | 33617 ft | 423 kts | 321° |
| 2026-05-05 17:13 | 43.90122 | 22.40438 | 34017 ft | 422 kts | 321° |
| 2026-05-05 17:14 | 43.92298 | 22.37717 | 34366 ft | 421 kts | 314° |
| 2026-05-05 17:14 | 43.94307 | 22.34831 | 34662 ft | 422 kts | 314° |
| 2026-05-05 17:14 | 43.96343 | 22.31903 | 34940 ft | 423 kts | 314° |
| 2026-05-05 17:14 | 43.98392 | 22.28962 | 35252 ft | 423 kts | 314° |
| 2026-05-05 17:15 | 44.00435 | 22.26032 | 35572 ft | 422 kts | 314° |
| 2026-05-05 17:15 | 44.02477 | 22.23096 | 35888 ft | 423 kts | 314° |
| 2026-05-05 17:15 | 44.06544 | 22.17247 | 35973 ft | 418 kts | 314° |
| 2026-05-05 17:16 | 44.10569 | 22.11441 | 35974 ft | 416 kts | 314° |
| 2026-05-05 17:16 | 44.14583 | 22.05635 | 35978 ft | 416 kts | 314° |
| 2026-05-05 17:17 | 44.18594 | 21.99826 | 35977 ft | 415 kts | 314° |
| 2026-05-05 17:17 | 44.22592 | 21.94020 | 35986 ft | 415 kts | 314° |
| 2026-05-05 17:18 | 44.26596 | 21.88194 | 35984 ft | 417 kts | 314° |
| 2026-05-05 17:18 | 44.30607 | 21.82349 | 35982 ft | 417 kts | 314° |
| 2026-05-05 17:19 | 44.34624 | 21.76483 | 35980 ft | 418 kts | 313° |
| 2026-05-05 17:19 | 44.38639 | 21.70607 | 35983 ft | 418 kts | 313° |
| 2026-05-05 17:20 | 44.42652 | 21.64724 | 35987 ft | 418 kts | 313° |
| 2026-05-05 17:20 | 44.46632 | 21.58872 | 35981 ft | 418 kts | 313° |
| 2026-05-05 17:21 | 44.50634 | 21.52970 | 35990 ft | 418 kts | 313° |
| 2026-05-05 17:22 | 44.56636 | 21.44095 | 35971 ft | 419 kts | 313° |
| 2026-05-05 17:22 | 44.60644 | 21.38165 | 35969 ft | 419 kts | 313° |
| 2026-05-05 17:23 | 44.64652 | 21.32222 | 35971 ft | 419 kts | 313° |
| 2026-05-05 17:23 | 44.68656 | 21.26270 | 35958 ft | 419 kts | 313° |
| 2026-05-05 17:24 | 44.72651 | 21.20309 | 35961 ft | 418 kts | 313° |
| 2026-05-05 17:24 | 44.76443 | 21.14132 | 35966 ft | 417 kts | 307° |
| 2026-05-05 17:25 | 44.79980 | 21.07662 | 35961 ft | 417 kts | 307° |
| 2026-05-05 17:25 | 44.83494 | 21.01232 | 35960 ft | 417 kts | 307° |
| 2026-05-05 17:26 | 44.87026 | 20.94760 | 35958 ft | 416 kts | 307° |
| 2026-05-05 17:26 | 44.90556 | 20.88285 | 35957 ft | 416 kts | 307° |
| 2026-05-05 17:27 | 44.94076 | 20.81800 | 35958 ft | 416 kts | 307° |
| 2026-05-05 17:27 | 44.97586 | 20.75299 | 35956 ft | 416 kts | 307° |
| 2026-05-05 17:28 | 45.01104 | 20.68807 | 35958 ft | 416 kts | 307° |
| 2026-05-05 17:28 | 45.04619 | 20.62310 | 35958 ft | 416 kts | 306° |
| 2026-05-05 17:29 | 45.08116 | 20.55794 | 35957 ft | 416 kts | 306° |
| 2026-05-05 17:29 | 45.11609 | 20.49269 | 35962 ft | 416 kts | 306° |
| 2026-05-05 17:30 | 45.15104 | 20.42732 | 35955 ft | 417 kts | 307° |
| 2026-05-05 17:30 | 45.18605 | 20.36190 | 35957 ft | 417 kts | 306° |
| 2026-05-05 17:31 | 45.22104 | 20.29632 | 35958 ft | 417 kts | 306° |
| 2026-05-05 17:31 | 45.25591 | 20.23064 | 35960 ft | 417 kts | 306° |
| 2026-05-05 17:32 | 45.29053 | 20.16533 | 35952 ft | 417 kts | 306° |
| 2026-05-05 17:32 | 45.32539 | 20.09950 | 35953 ft | 417 kts | 306° |
| 2026-05-05 17:33 | 45.36021 | 20.03368 | 35950 ft | 417 kts | 306° |
| 2026-05-05 17:33 | 45.39493 | 19.96765 | 35947 ft | 417 kts | 306° |
| 2026-05-05 17:34 | 45.42968 | 19.90144 | 35939 ft | 418 kts | 306° |
| 2026-05-05 17:34 | 45.46461 | 19.83496 | 35925 ft | 420 kts | 306° |
| 2026-05-05 17:35 | 45.49965 | 19.76809 | 35922 ft | 422 kts | 305° |
| 2026-05-05 17:35 | 45.53477 | 19.70073 | 35925 ft | 424 kts | 305° |
| 2026-05-05 17:36 | 45.56401 | 19.64457 | 35925 ft | 425 kts | 305° |
| 2026-05-05 17:36 | 45.59924 | 19.57677 | 35934 ft | 426 kts | 305° |
| 2026-05-05 17:37 | 45.64018 | 19.49774 | 35945 ft | 426 kts | 305° |
| 2026-05-05 17:37 | 45.66972 | 19.44063 | 35948 ft | 426 kts | 305° |
| 2026-05-05 17:38 | 45.70496 | 19.37238 | 35948 ft | 427 kts | 305° |
| 2026-05-05 17:38 | 45.73995 | 19.30444 | 35953 ft | 427 kts | 305° |
| 2026-05-05 17:39 | 45.77509 | 19.23592 | 35954 ft | 427 kts | 304° |
| 2026-05-05 17:39 | 45.81025 | 19.16720 | 35958 ft | 428 kts | 304° |
| 2026-05-05 17:40 | 45.84550 | 19.09829 | 35952 ft | 429 kts | 304° |
| 2026-05-05 17:40 | 45.88077 | 19.02916 | 35956 ft | 430 kts | 304° |
| 2026-05-05 17:41 | 45.91598 | 18.95985 | 35958 ft | 430 kts | 304° |
| 2026-05-05 17:41 | 45.95162 | 18.89080 | 35966 ft | 431 kts | 306° |
| 2026-05-05 17:42 | 45.98920 | 18.82363 | 35963 ft | 432 kts | 307° |
| 2026-05-05 17:42 | 46.02729 | 18.75677 | 35960 ft | 432 kts | 307° |
| 2026-05-05 17:43 | 46.06496 | 18.68937 | 35970 ft | 432 kts | 307° |
| 2026-05-05 17:43 | 46.10229 | 18.62148 | 35971 ft | 432 kts | 306° |
| 2026-05-05 17:44 | 46.13959 | 18.55349 | 35983 ft | 432 kts | 306° |
| 2026-05-05 17:44 | 46.17694 | 18.48543 | 35978 ft | 433 kts | 306° |
| 2026-05-05 17:45 | 46.21401 | 18.41774 | 35976 ft | 433 kts | 306° |
| 2026-05-05 17:45 | 46.25143 | 18.34952 | 35973 ft | 433 kts | 306° |
| 2026-05-05 17:46 | 46.28871 | 18.28111 | 35977 ft | 433 kts | 306° |
| 2026-05-05 17:46 | 46.32595 | 18.21258 | 35969 ft | 434 kts | 306° |
| 2026-05-05 17:47 | 46.36319 | 18.14392 | 35966 ft | 433 kts | 306° |
| 2026-05-05 17:47 | 46.40039 | 18.07524 | 35961 ft | 433 kts | 306° |
| 2026-05-05 17:48 | 46.43753 | 18.00653 | 35965 ft | 433 kts | 306° |
| 2026-05-05 17:48 | 46.47459 | 17.93778 | 35963 ft | 432 kts | 306° |
| 2026-05-05 17:49 | 46.51156 | 17.86890 | 35958 ft | 433 kts | 306° |
| 2026-05-05 17:49 | 46.54848 | 17.79988 | 35955 ft | 433 kts | 306° |
| 2026-05-05 17:50 | 46.58536 | 17.73071 | 35946 ft | 433 kts | 306° |
| 2026-05-05 17:50 | 46.62247 | 17.66160 | 35946 ft | 434 kts | 307° |
| 2026-05-05 17:51 | 46.66094 | 17.59377 | 35955 ft | 434 kts | 308° |
| 2026-05-05 17:51 | 46.69984 | 17.52644 | 35953 ft | 434 kts | 308° |
| 2026-05-05 17:52 | 46.73817 | 17.45918 | 35952 ft | 434 kts | 307° |
| 2026-05-05 17:52 | 46.77650 | 17.39110 | 35954 ft | 434 kts | 307° |
| 2026-05-05 17:53 | 46.81488 | 17.32298 | 35959 ft | 434 kts | 307° |
| 2026-05-05 17:53 | 46.85317 | 17.25474 | 35954 ft | 434 kts | 307° |
| 2026-05-05 17:54 | 46.89142 | 17.18640 | 35948 ft | 434 kts | 307° |
| 2026-05-05 17:54 | 46.92971 | 17.11802 | 35942 ft | 434 kts | 307° |
| 2026-05-05 17:55 | 46.96799 | 17.04957 | 35932 ft | 434 kts | 307° |
| 2026-05-05 17:55 | 47.00615 | 16.98107 | 35922 ft | 434 kts | 307° |
| 2026-05-05 17:56 | 47.04419 | 16.91233 | 35912 ft | 434 kts | 307° |
| 2026-05-05 17:56 | 47.08215 | 16.84361 | 35904 ft | 434 kts | 306° |
| 2026-05-05 17:57 | 47.12010 | 16.77483 | 35895 ft | 433 kts | 306° |
| 2026-05-05 17:57 | 47.15801 | 16.70604 | 35898 ft | 433 kts | 306° |
| 2026-05-05 17:58 | 47.19582 | 16.63718 | 35886 ft | 433 kts | 306° |
| 2026-05-05 17:58 | 47.23359 | 16.56824 | 35892 ft | 432 kts | 306° |
| 2026-05-05 17:59 | 47.27121 | 16.49929 | 35890 ft | 431 kts | 306° |
| 2026-05-05 17:59 | 47.30865 | 16.43105 | 35874 ft | 431 kts | 306° |
| 2026-05-05 18:00 | 47.34674 | 16.36288 | 35869 ft | 431 kts | 307° |
| 2026-05-05 18:00 | 47.38488 | 16.29475 | 35864 ft | 430 kts | 306° |
| 2026-05-05 18:01 | 47.42277 | 16.22638 | 35849 ft | 430 kts | 306° |
| 2026-05-05 18:01 | 47.46053 | 16.15788 | 35844 ft | 430 kts | 306° |
| 2026-05-05 18:02 | 47.49830 | 16.08940 | 35841 ft | 430 kts | 306° |
| 2026-05-05 18:02 | 47.53603 | 16.02086 | 35840 ft | 429 kts | 306° |
| 2026-05-05 18:03 | 47.57363 | 15.95230 | 35837 ft | 429 kts | 306° |
| 2026-05-05 18:03 | 47.61112 | 15.88367 | 35836 ft | 428 kts | 306° |
| 2026-05-05 18:04 | 47.64857 | 15.81500 | 35821 ft | 428 kts | 306° |
| 2026-05-05 18:04 | 47.68595 | 15.74625 | 35818 ft | 428 kts | 306° |
| 2026-05-05 18:05 | 47.72332 | 15.67745 | 35827 ft | 427 kts | 305° |
| 2026-05-05 18:05 | 47.76047 | 15.60886 | 35806 ft | 425 kts | 304° |
| 2026-05-05 18:06 | 47.79750 | 15.54035 | 35800 ft | 424 kts | 304° |
| 2026-05-05 18:06 | 47.83441 | 15.47192 | 35797 ft | 424 kts | 304° |
| 2026-05-05 18:07 | 47.87128 | 15.40339 | 35778 ft | 424 kts | 304° |
| 2026-05-05 18:07 | 47.90783 | 15.33510 | 35744 ft | 425 kts | 305° |
| 2026-05-05 18:08 | 47.94530 | 15.26574 | 35734 ft | 428 kts | 306° |
| 2026-05-05 18:08 | 47.98280 | 15.19650 | 35733 ft | 430 kts | 306° |
| 2026-05-05 18:09 | 48.02007 | 15.12728 | 35742 ft | 431 kts | 306° |
| 2026-05-05 18:09 | 48.05762 | 15.05739 | 35739 ft | 431 kts | 306° |
| 2026-05-05 18:10 | 48.09519 | 14.98735 | 35754 ft | 432 kts | 306° |
| 2026-05-05 18:10 | 48.13279 | 14.91702 | 35739 ft | 433 kts | 306° |
| 2026-05-05 18:11 | 48.17039 | 14.84637 | 35738 ft | 434 kts | 306° |
| 2026-05-05 18:11 | 48.20796 | 14.77560 | 35736 ft | 434 kts | 306° |
| 2026-05-05 18:12 | 48.24556 | 14.70473 | 35746 ft | 434 kts | 305° |
| 2026-05-05 18:12 | 48.28307 | 14.63372 | 35749 ft | 434 kts | 305° |
| 2026-05-05 18:13 | 48.32055 | 14.56247 | 35756 ft | 434 kts | 305° |
| 2026-05-05 18:13 | 48.35803 | 14.49122 | 35758 ft | 434 kts | 305° |
| 2026-05-05 18:14 | 48.39551 | 14.41988 | 35760 ft | 434 kts | 305° |
| 2026-05-05 18:14 | 48.43291 | 14.34845 | 35768 ft | 435 kts | 305° |
| 2026-05-05 18:15 | 48.47021 | 14.27671 | 35764 ft | 435 kts | 305° |
| 2026-05-05 18:15 | 48.50758 | 14.20493 | 35760 ft | 435 kts | 305° |
| 2026-05-05 18:16 | 48.54496 | 14.13305 | 35760 ft | 435 kts | 305° |
| 2026-05-05 18:16 | 48.58229 | 14.06097 | 35764 ft | 436 kts | 305° |
| 2026-05-05 18:17 | 48.61953 | 13.98874 | 35777 ft | 436 kts | 304° |
| 2026-05-05 18:17 | 48.65674 | 13.91631 | 35767 ft | 437 kts | 304° |
| 2026-05-05 18:18 | 48.69379 | 13.84418 | 35771 ft | 437 kts | 304° |
| 2026-05-05 18:18 | 48.73108 | 13.77139 | 35773 ft | 438 kts | 304° |
| 2026-05-05 18:19 | 48.76832 | 13.69839 | 35774 ft | 438 kts | 304° |
| 2026-05-05 18:19 | 48.80525 | 13.62500 | 35793 ft | 438 kts | 303° |
| 2026-05-05 18:20 | 48.84204 | 13.55113 | 35782 ft | 439 kts | 303° |
| 2026-05-05 18:20 | 48.87877 | 13.47699 | 35778 ft | 439 kts | 303° |
| 2026-05-05 18:21 | 48.91553 | 13.40274 | 35778 ft | 440 kts | 303° |
| 2026-05-05 18:21 | 48.95233 | 13.32844 | 35779 ft | 440 kts | 303° |
| 2026-05-05 18:22 | 48.98912 | 13.25404 | 35792 ft | 440 kts | 303° |
| 2026-05-05 18:22 | 49.02597 | 13.17939 | 35765 ft | 441 kts | 303° |
| 2026-05-05 18:23 | 49.06279 | 13.10440 | 35770 ft | 442 kts | 303° |
| 2026-05-05 18:23 | 49.09963 | 13.02927 | 35770 ft | 442 kts | 303° |
| 2026-05-05 18:24 | 49.13638 | 12.95394 | 35782 ft | 443 kts | 303° |
| 2026-05-05 18:24 | 49.17315 | 12.87837 | 35784 ft | 443 kts | 303° |
| 2026-05-05 18:25 | 49.20990 | 12.80271 | 35784 ft | 443 kts | 303° |
| 2026-05-05 18:25 | 49.24632 | 12.72741 | 35783 ft | 443 kts | 303° |
| 2026-05-05 18:26 | 49.28289 | 12.65159 | 35788 ft | 443 kts | 303° |
| 2026-05-05 18:26 | 49.31356 | 12.58782 | 35781 ft | 443 kts | 303° |
| 2026-05-05 18:27 | 49.35639 | 12.49961 | 35791 ft | 445 kts | 304° |
| 2026-05-05 18:27 | 49.39499 | 12.42511 | 35769 ft | 447 kts | 305° |
| 2026-05-05 18:28 | 49.44723 | 12.32562 | 35767 ft | 448 kts | 305° |
| 2026-05-05 18:28 | 49.48562 | 12.25098 | 35767 ft | 448 kts | 304° |
| 2026-05-05 18:29 | 49.52398 | 12.17538 | 35800 ft | 448 kts | 304° |
| 2026-05-05 18:29 | 49.56241 | 12.09967 | 35790 ft | 449 kts | 305° |
| 2026-05-05 18:30 | 49.60097 | 12.02378 | 35794 ft | 450 kts | 305° |
| 2026-05-05 18:30 | 49.63956 | 11.94767 | 35798 ft | 450 kts | 304° |
| 2026-05-05 18:31 | 49.67808 | 11.87133 | 35803 ft | 451 kts | 304° |
| 2026-05-05 18:31 | 49.71654 | 11.79489 | 35834 ft | 451 kts | 304° |
| 2026-05-05 18:32 | 49.75511 | 11.71814 | 35800 ft | 452 kts | 304° |
| 2026-05-05 18:32 | 49.79368 | 11.64119 | 35795 ft | 453 kts | 304° |
| 2026-05-05 18:33 | 49.83225 | 11.56386 | 35798 ft | 454 kts | 304° |
| 2026-05-05 18:33 | 49.87085 | 11.48633 | 35803 ft | 454 kts | 305° |
| 2026-05-05 18:34 | 49.90940 | 11.40866 | 35837 ft | 455 kts | 304° |
| 2026-05-05 18:34 | 49.94769 | 11.33119 | 35827 ft | 456 kts | 304° |
| 2026-05-05 18:35 | 49.98625 | 11.25292 | 35816 ft | 457 kts | 304° |
| 2026-05-05 18:35 | 50.02485 | 11.17443 | 35829 ft | 457 kts | 304° |
| 2026-05-05 18:36 | 50.06345 | 11.09586 | 35828 ft | 457 kts | 304° |
| 2026-05-05 18:36 | 50.10196 | 11.01700 | 35847 ft | 458 kts | 304° |
| 2026-05-05 18:37 | 50.14051 | 10.93787 | 35839 ft | 459 kts | 304° |
| 2026-05-05 18:37 | 50.17907 | 10.85856 | 35839 ft | 459 kts | 304° |
| 2026-05-05 18:38 | 50.21770 | 10.77905 | 35838 ft | 460 kts | 304° |
| 2026-05-05 18:38 | 50.25622 | 10.69938 | 35834 ft | 460 kts | 304° |
| 2026-05-05 18:39 | 50.29467 | 10.61950 | 35857 ft | 460 kts | 303° |
| 2026-05-05 18:39 | 50.33309 | 10.53939 | 35844 ft | 461 kts | 303° |
| 2026-05-05 18:40 | 50.37151 | 10.45908 | 35839 ft | 461 kts | 303° |
| 2026-05-05 18:40 | 50.40992 | 10.37854 | 35830 ft | 461 kts | 303° |
| 2026-05-05 18:41 | 50.44831 | 10.29788 | 35830 ft | 461 kts | 303° |
| 2026-05-05 18:41 | 50.48663 | 10.21719 | 35850 ft | 461 kts | 303° |
| 2026-05-05 18:42 | 50.52496 | 10.13640 | 35831 ft | 461 kts | 303° |
| 2026-05-05 18:42 | 50.56318 | 10.05541 | 35824 ft | 461 kts | 303° |
| 2026-05-05 18:43 | 50.60102 | 9.97481 | 35823 ft | 461 kts | 303° |
| 2026-05-05 18:43 | 50.63903 | 9.89355 | 35820 ft | 461 kts | 303° |
| 2026-05-05 18:44 | 50.67698 | 9.81214 | 35838 ft | 461 kts | 303° |
| 2026-05-05 18:44 | 50.71492 | 9.73057 | 35819 ft | 462 kts | 303° |
| 2026-05-05 18:45 | 50.75294 | 9.64882 | 35818 ft | 462 kts | 303° |
| 2026-05-05 18:45 | 50.79095 | 9.56673 | 35815 ft | 463 kts | 303° |
| 2026-05-05 18:46 | 50.82886 | 9.48448 | 35816 ft | 463 kts | 303° |
| 2026-05-05 18:46 | 50.86674 | 9.40201 | 35840 ft | 463 kts | 303° |
| 2026-05-05 18:47 | 50.90460 | 9.31936 | 35835 ft | 464 kts | 303° |
| 2026-05-05 18:47 | 50.94246 | 9.23666 | 35827 ft | 464 kts | 302° |
| 2026-05-05 18:48 | 50.98020 | 9.15373 | 35828 ft | 464 kts | 302° |
| 2026-05-05 18:48 | 51.01785 | 9.07064 | 35831 ft | 464 kts | 302° |
| 2026-05-05 18:49 | 51.05548 | 8.98745 | 35826 ft | 463 kts | 302° |
| 2026-05-05 18:49 | 51.09307 | 8.90439 | 35822 ft | 462 kts | 302° |
| 2026-05-05 18:50 | 51.13039 | 8.82126 | 35824 ft | 462 kts | 302° |
| 2026-05-05 18:50 | 51.16943 | 8.73955 | 35830 ft | 464 kts | 306° |
| 2026-05-05 18:51 | 51.21058 | 8.66014 | 35836 ft | 465 kts | 306° |
| 2026-05-05 18:51 | 51.25169 | 8.58050 | 35862 ft | 465 kts | 306° |
| 2026-05-05 18:52 | 51.29189 | 8.50066 | 35860 ft | 464 kts | 305° |
| 2026-05-05 18:52 | 51.33192 | 8.41997 | 35864 ft | 462 kts | 304° |
| 2026-05-05 18:53 | 51.37047 | 8.33783 | 35859 ft | 461 kts | 302° |
| 2026-05-05 18:53 | 51.40795 | 8.25463 | 35858 ft | 460 kts | 302° |
| 2026-05-05 18:54 | 51.44549 | 8.17139 | 35546 ft | 461 kts | 302° |
| 2026-05-05 18:54 | 51.46434 | 8.13002 | 35303 ft | 460 kts | 303° |
| 2026-05-05 18:54 | 51.48330 | 8.08860 | 35057 ft | 462 kts | 303° |
| 2026-05-05 18:55 | 51.50233 | 8.04700 | 34817 ft | 463 kts | 303° |
| 2026-05-05 18:55 | 51.52133 | 8.00536 | 34524 ft | 465 kts | 302° |
| 2026-05-05 18:55 | 51.54044 | 7.96330 | 34003 ft | 466 kts | 302° |
| 2026-05-05 18:55 | 51.55951 | 7.92112 | 33447 ft | 466 kts | 302° |
| 2026-05-05 18:56 | 51.57853 | 7.87892 | 32932 ft | 467 kts | 302° |
| 2026-05-05 18:56 | 51.59758 | 7.83666 | 32413 ft | 467 kts | 302° |
| 2026-05-05 18:56 | 51.61667 | 7.79424 | 31882 ft | 468 kts | 302° |
| 2026-05-05 18:56 | 51.63571 | 7.75191 | 31338 ft | 467 kts | 302° |
| 2026-05-05 18:57 | 51.65467 | 7.70962 | 30838 ft | 464 kts | 303° |
| 2026-05-05 18:57 | 51.67350 | 7.66754 | 30318 ft | 461 kts | 302° |
| 2026-05-05 18:57 | 51.68983 | 7.62370 | 29806 ft | 453 kts | 292° |
| 2026-05-05 18:57 | 51.70039 | 7.57651 | 29279 ft | 444 kts | 280° |
| 2026-05-05 18:58 | 51.70513 | 7.52794 | 28839 ft | 436 kts | 270° |
| 2026-05-05 18:58 | 51.70424 | 7.47961 | 28410 ft | 428 kts | 260° |
| 2026-05-05 18:58 | 51.70087 | 7.43206 | 27982 ft | 426 kts | 261° |
| 2026-05-05 18:58 | 51.69842 | 7.38454 | 27558 ft | 424 kts | 263° |
| 2026-05-05 18:59 | 51.69652 | 7.33724 | 27154 ft | 422 kts | 263° |
| 2026-05-05 18:59 | 51.69478 | 7.29012 | 26738 ft | 419 kts | 263° |
| 2026-05-05 18:59 | 51.69293 | 7.24335 | 26330 ft | 417 kts | 263° |
| 2026-05-05 18:59 | 51.69088 | 7.19694 | 25913 ft | 414 kts | 263° |
| 2026-05-05 19:00 | 51.68867 | 7.15081 | 25513 ft | 411 kts | 262° |
| 2026-05-05 19:00 | 51.68636 | 7.10498 | 25086 ft | 409 kts | 262° |
| 2026-05-05 19:00 | 51.68399 | 7.05949 | 24666 ft | 406 kts | 262° |
| 2026-05-05 19:00 | 51.68158 | 7.01420 | 24066 ft | 406 kts | 262° |
| 2026-05-05 19:01 | 51.67914 | 6.96893 | 23456 ft | 404 kts | 262° |
| 2026-05-05 19:01 | 51.67678 | 6.92443 | 22746 ft | 394 kts | 262° |
| 2026-05-05 19:01 | 51.67451 | 6.88144 | 22057 ft | 388 kts | 262° |
| 2026-05-05 19:01 | 51.67224 | 6.83842 | 21377 ft | 382 kts | 262° |
| 2026-05-05 19:02 | 51.66999 | 6.79604 | 20711 ft | 378 kts | 263° |
| 2026-05-05 19:02 | 51.66777 | 6.75398 | 20075 ft | 377 kts | 263° |
| 2026-05-05 19:02 | 51.66553 | 6.71184 | 19439 ft | 378 kts | 263° |
| 2026-05-05 19:02 | 51.66325 | 6.66958 | 18814 ft | 379 kts | 263° |
| 2026-05-05 19:03 | 51.66096 | 6.62723 | 18195 ft | 380 kts | 263° |
| 2026-05-05 19:03 | 51.65864 | 6.58477 | 17506 ft | 380 kts | 263° |
| 2026-05-05 19:03 | 51.65631 | 6.54244 | 16809 ft | 380 kts | 263° |
| 2026-05-05 19:03 | 51.65397 | 6.50008 | 16146 ft | 379 kts | 263° |
| 2026-05-05 19:04 | 51.65162 | 6.45778 | 15489 ft | 378 kts | 263° |
| 2026-05-05 19:04 | 51.64926 | 6.41566 | 14843 ft | 377 kts | 263° |
| 2026-05-05 19:04 | 51.64687 | 6.37370 | 14212 ft | 375 kts | 264° |
| 2026-05-05 19:04 | 51.64446 | 6.33210 | 13585 ft | 373 kts | 263° |
| 2026-05-05 19:05 | 51.64204 | 6.29059 | 12892 ft | 371 kts | 263° |
| 2026-05-05 19:05 | 51.63963 | 6.24937 | 12211 ft | 369 kts | 264° |
| 2026-05-05 19:05 | 51.63725 | 6.20901 | 11565 ft | 367 kts | 264° |
| 2026-05-05 19:05 | 51.63485 | 6.16827 | 10912 ft | 362 kts | 264° |
| 2026-05-05 19:06 | 51.63252 | 6.12837 | 10273 ft | 353 kts | 264° |
| 2026-05-05 19:06 | 51.62802 | 6.09012 | 9658 ft | 344 kts | 251° |
| 2026-05-05 19:06 | 51.61989 | 6.05504 | 9408 ft | 327 kts | 250° |
| 2026-05-05 19:06 | 51.61217 | 6.02130 | 9203 ft | 318 kts | 249° |
| 2026-05-05 19:07 | 51.60456 | 5.98767 | 9018 ft | 320 kts | 250° |
| 2026-05-05 19:07 | 51.59698 | 5.95411 | 8789 ft | 320 kts | 250° |
| 2026-05-05 19:07 | 51.58937 | 5.92057 | 8552 ft | 319 kts | 250° |
| 2026-05-05 19:07 | 51.58176 | 5.88713 | 8330 ft | 319 kts | 250° |
| 2026-05-05 19:08 | 51.57411 | 5.85369 | 8095 ft | 318 kts | 250° |
| 2026-05-05 19:08 | 51.56562 | 5.82095 | 7913 ft | 318 kts | 239° |
| 2026-05-05 19:08 | 51.55151 | 5.79379 | 7889 ft | 318 kts | 225° |
| 2026-05-05 19:08 | 51.53600 | 5.76914 | 7883 ft | 305 kts | 224° |
| 2026-05-05 19:09 | 51.52124 | 5.74605 | 7889 ft | 292 kts | 224° |
| 2026-05-05 19:09 | 51.50673 | 5.72344 | 7889 ft | 290 kts | 224° |
| 2026-05-05 19:09 | 51.49224 | 5.70085 | 7890 ft | 290 kts | 224° |
| 2026-05-05 19:09 | 51.47779 | 5.67835 | 7888 ft | 290 kts | 224° |
| 2026-05-05 19:10 | 51.46335 | 5.65588 | 7887 ft | 289 kts | 224° |
| 2026-05-05 19:10 | 51.44893 | 5.63347 | 7887 ft | 290 kts | 224° |
| 2026-05-05 19:10 | 51.43446 | 5.61100 | 7868 ft | 289 kts | 224° |
| 2026-05-05 19:10 | 51.41992 | 5.58862 | 7869 ft | 291 kts | 224° |
| 2026-05-05 19:11 | 51.40559 | 5.56656 | 7867 ft | 290 kts | 224° |
| 2026-05-05 19:11 | 51.39111 | 5.54428 | 7866 ft | 288 kts | 224° |
| 2026-05-05 19:11 | 51.37664 | 5.52208 | 7865 ft | 289 kts | 222° |
| 2026-05-05 19:11 | 51.36208 | 5.49997 | 7841 ft | 289 kts | 224° |
| 2026-05-05 19:12 | 51.34766 | 5.47790 | 7859 ft | 282 kts | 224° |
| 2026-05-05 19:12 | 51.33385 | 5.45677 | 7719 ft | 271 kts | 224° |
| 2026-05-05 19:12 | 51.32018 | 5.43586 | 7231 ft | 271 kts | 224° |
| 2026-05-05 19:12 | 51.30662 | 5.41505 | 6741 ft | 269 kts | 224° |
| 2026-05-05 19:13 | 51.29315 | 5.39440 | 6244 ft | 268 kts | 224° |
| 2026-05-05 19:13 | 51.27973 | 5.37382 | 5721 ft | 267 kts | 224° |
| 2026-05-05 19:13 | 51.26641 | 5.35331 | 5217 ft | 266 kts | 224° |
| 2026-05-05 19:13 | 51.25313 | 5.33282 | 4715 ft | 264 kts | 224° |
| 2026-05-05 19:14 | 51.23994 | 5.31248 | 4198 ft | 263 kts | 224° |
| 2026-05-05 19:14 | 51.22718 | 5.29171 | 3670 ft | 261 kts | 234° |
| 2026-05-05 19:14 | 51.22025 | 5.26565 | 3183 ft | 254 kts | 266° |
| 2026-05-05 19:14 | 51.22190 | 5.23837 | 2664 ft | 245 kts | 293° |
| 2026-05-05 19:15 | 51.22956 | 5.21517 | 2379 ft | 231 kts | 314° |
| 2026-05-05 19:15 | 51.24105 | 5.19834 | 2117 ft | 219 kts | 333° |
| 2026-05-05 19:15 | 51.25438 | 5.18892 | 2016 ft | 203 kts | 350° |
| 2026-05-05 19:15 | 51.26813 | 5.18642 | 2019 ft | 198 kts | 6° |
| 2026-05-05 19:16 | 51.28113 | 5.19004 | 2032 ft | 180 kts | 21° |
| 2026-05-05 19:16 | 51.29203 | 5.19827 | 2022 ft | 169 kts | 34° |
| 2026-05-05 19:16 | 51.30162 | 5.20889 | 2020 ft | 167 kts | 35° |
| 2026-05-05 19:16 | 51.31109 | 5.21939 | 2020 ft | 165 kts | 35° |
| 2026-05-05 19:17 | 51.32055 | 5.22989 | 2042 ft | 163 kts | 35° |
| 2026-05-05 19:17 | 51.32938 | 5.23970 | 2017 ft | 150 kts | 35° |
| 2026-05-05 19:17 | 51.33781 | 5.24909 | 2005 ft | 142 kts | 35° |
| 2026-05-05 19:17 | 51.34572 | 5.25789 | 2002 ft | 137 kts | 35° |
| 2026-05-05 19:18 | 51.35089 | 5.26365 | 2014 ft | 136 kts | 35° |
| 2026-05-05 19:18 | 51.35863 | 5.27227 | 1984 ft | 135 kts | 36° |
| 2026-05-05 19:18 | 51.36636 | 5.28089 | 1869 ft | 133 kts | 36° |
| 2026-05-05 19:18 | 51.37387 | 5.28926 | 1740 ft | 131 kts | 36° |
| 2026-05-05 19:19 | 51.38128 | 5.29753 | 1563 ft | 129 kts | 35° |
| 2026-05-05 19:19 | 51.38869 | 5.30579 | 1388 ft | 130 kts | 35° |
| 2026-05-05 19:19 | 51.39608 | 5.31405 | 1203 ft | 129 kts | 35° |
| 2026-05-05 19:19 | 51.40349 | 5.32232 | 1019 ft | 131 kts | 35° |
| 2026-05-05 19:20 | 51.41095 | 5.33068 | 805 ft | 130 kts | 34° |
| 2026-05-05 19:20 | 51.41836 | 5.33904 | 594 ft | 130 kts | 36° |
| 2026-05-05 19:20 | 51.42585 | 5.34739 | 425 ft | 132 kts | 35° |
| 2026-05-05 19:20 | 51.43335 | 5.35570 | 291 ft | 130 kts | 34° |
| 2026-05-05 19:21 | 51.44078 | 5.36404 | 121 ft | 130 kts | 34° |
| 2026-05-05 19:21 | 51.44761 | 5.37170 | 83 ft | 103 kts | 35° |
| 2026-05-05 19:21 | 51.45257 | 5.37722 | 76 ft | 76 kts | 35° |
| 2026-05-05 19:21 | 51.45650 | 5.38162 | 72 ft | 59 kts | 34° |
| 2026-05-05 19:22 | 51.45904 | 5.38443 | 72 ft | 40 kts | 34° |
| 2026-05-05 19:22 | 51.46058 | 5.38620 | 83 ft | 19 kts | 36° |
| 2026-05-05 19:22 | 51.46076 | 5.38743 | 71 ft | 10 kts | 124° |
| 2026-05-05 19:22 | 51.46037 | 5.38837 | 70 ft | 11 kts | 124° |
| 2026-05-05 19:23 | 51.46003 | 5.38914 | 70 ft | 7 kts | 125° |
| 2026-05-05 19:23 | 51.45974 | 5.38981 | 67 ft | 3 kts | 125° |
| 2026-05-05 19:23 | 51.45952 | 5.38992 | 72 ft | 6 kts | 181° |
| 2026-05-05 19:23 | 51.45900 | 5.38961 | 72 ft | 7 kts | 188° |
| 2026-05-05 19:24 | 51.45871 | 5.39020 | 73 ft | 7 kts | 125° |
| 2026-05-05 19:24 | 51.45860 | 5.39045 | 65 ft | 1 kts | 125° |
| 2026-05-05 19:24 | 51.45858 | 5.39049 | 75 ft | 0 kts | 125° |